Time;durP1;ratioP1;P1;durP2;ratioP2;P2;SDS_P1;SDS_P2;PMS_P1;PMS_P2;Temp;Humidity;BMP_temperature;BMP_pressure;BME280_temperature;BME280_humidity;BME280_pressure;Samples;Min_cycle;Max_cycle;Signal;HPM_P1;HPM_P2
2021/09/01 00:01:35;;;;;;;10.55;3.95;;;12.60;90.00;;;;;;6308466;22;20352;-73
2021/09/01 00:04:02;;;;;;;8.18;4.28;;;12.70;90.20;;;;;;6314349;22;20033;-74
2021/09/01 00:06:31;;;;;;;14.13;4.88;;;12.70;90.40;;;;;;6286084;22;20038;-73
2021/09/01 00:09:01;;;;;;;9.82;4.10;;;12.70;90.30;;;;;;6314124;22;20248;-73
2021/09/01 00:11:34;;;;;;;8.48;4.50;;;12.70;90.40;;;;;;6313777;22;20042;-73
2021/09/01 00:14:02;;;;;;;;;;;12.70;90.40;;;;;;6316734;22;20023;-73
2021/09/01 00:16:31;;;;;;;7.22;3.17;;;12.80;90.50;;;;;;6313716;22;19941;-73
2021/09/01 00:19:00;;;;;;;9.52;4.15;;;12.70;90.50;;;;;;6314207;22;20011;-73
2021/09/01 00:21:29;;;;;;;9.38;3.08;;;12.60;90.90;;;;;;6312916;22;20019;-73
2021/09/01 00:23:57;;;;;;;7.57;3.28;;;12.60;90.10;;;;;;6311685;22;20022;-73
2021/09/01 00:26:26;;;;;;;7.25;3.33;;;12.60;90.00;;;;;;6312653;22;20061;-72
2021/09/01 00:28:53;;;;;;;10.52;3.40;;;12.60;89.50;;;;;;6313354;22;20319;-73
2021/09/01 00:31:22;;;;;;;8.55;3.28;;;12.60;89.70;;;;;;6313382;22;20218;-74
2021/09/01 00:33:50;;;;;;;7.88;3.08;;;12.70;89.60;;;;;;6314039;22;20015;-74
2021/09/01 00:36:18;;;;;;;6.78;3.40;;;12.80;89.60;;;;;;6313247;22;20215;-73
2021/09/01 00:38:46;;;;;;;5.57;3.13;;;12.80;89.60;;;;;;6313344;22;20102;-73
2021/09/01 00:41:17;;;;;;;9.05;3.33;;;12.80;89.60;;;;;;6315151;22;20031;-73
2021/09/01 00:43:44;;;;;;;;;;;12.80;89.40;;;;;;6315022;22;20241;-73
2021/09/01 00:46:13;;;;;;;8.43;3.35;;;12.70;89.70;;;;;;6314851;22;20193;-73
2021/09/01 00:48:42;;;;;;;9.15;3.72;;;12.70;89.60;;;;;;6314058;22;20023;-72
2021/09/01 00:51:09;;;;;;;7.63;3.33;;;12.70;89.50;;;;;;6315336;22;20023;-73
2021/09/01 00:53:42;;;;;;;7.57;3.55;;;12.60;90.20;;;;;;6314166;22;20041;-74
2021/09/01 00:56:12;;;;;;;8.77;3.72;;;12.60;90.10;;;;;;6315595;22;20023;-73
2021/09/01 00:58:40;;;;;;;7.65;3.15;;;12.60;90.00;;;;;;6314240;22;20119;-73
2021/09/01 01:01:16;;;;;;;8.25;3.40;;;12.60;90.00;;;;;;6308623;22;20187;-73
2021/09/01 01:03:48;;;;;;;6.88;2.95;;;12.60;89.90;;;;;;6315162;22;20019;-73
2021/09/01 01:06:17;;;;;;;7.20;3.42;;;12.60;89.90;;;;;;6289273;22;20027;-74
2021/09/01 01:08:49;;;;;;;6.60;3.33;;;12.60;90.00;;;;;;6289675;22;20071;-74
2021/09/01 01:11:21;;;;;;;6.65;3.78;;;12.60;89.80;;;;;;6317244;22;20049;-74
2021/09/01 01:13:49;;;;;;;7.05;3.28;;;12.60;89.90;;;;;;6317215;22;20332;-73
2021/09/01 01:16:36;;;;;;;5.64;3.31;;;12.70;89.90;;;;;;2858172;22;10150023;-74
2021/09/01 01:19:05;;;;;;;8.73;3.53;;;12.60;90.00;;;;;;5441510;22;10001445;-73
2021/09/01 01:21:34;;;;;;;7.63;3.92;;;12.60;90.00;;;;;;6314919;22;20319;-74
2021/09/01 01:24:01;;;;;;;9.32;4.03;;;12.60;90.10;;;;;;6316613;22;20027;-74
2021/09/01 01:26:32;;;;;;;9.77;3.70;;;12.60;90.30;;;;;;6316484;22;20019;-73
2021/09/01 01:29:02;;;;;;;6.70;3.40;;;12.60;90.60;;;;;;6315637;22;20265;-74
2021/09/01 01:31:30;;;;;;;11.38;4.22;;;12.60;90.40;;;;;;6316757;22;20026;-74
2021/09/01 01:33:58;;;;;;;8.25;3.10;;;12.60;90.60;;;;;;6317189;22;20023;-74
2021/09/01 01:36:26;;;;;;;7.57;3.60;;;12.60;90.70;;;;;;6315657;22;20019;-73
2021/09/01 01:38:54;;;;;;;10.30;4.80;;;12.60;90.70;;;;;;6316666;22;20337;-74
2021/09/01 01:41:22;;;;;;;8.13;4.10;;;12.60;90.60;;;;;;6315207;22;20026;-74
2021/09/01 01:43:52;;;;;;;6.93;3.65;;;12.70;90.40;;;;;;6315245;22;20334;-74
2021/09/01 01:46:20;;;;;;;8.45;3.30;;;12.60;90.20;;;;;;6314281;22;20050;-74
2021/09/01 01:48:52;;;;;;;7.63;3.70;;;12.70;89.80;;;;;;6313789;22;20034;-75
2021/09/01 01:51:20;;;;;;;8.18;3.83;;;12.60;89.90;;;;;;6312857;22;20117;-74
2021/09/01 01:53:47;;;;;;;8.30;4.35;;;12.50;90.00;;;;;;6313848;22;20031;-74
2021/09/01 01:56:15;;;;;;;8.23;3.63;;;12.50;89.90;;;;;;6314804;22;20344;-74
2021/09/01 01:58:42;;;;;;;7.57;4.00;;;12.40;89.90;;;;;;6314698;22;20060;-74
2021/09/01 02:01:11;;;;;;;7.32;3.97;;;12.40;90.20;;;;;;6309430;22;20195;-75
2021/09/01 02:03:40;;;;;;;8.60;3.63;;;12.40;90.40;;;;;;6313834;22;20066;-73
2021/09/01 02:06:07;;;;;;;10.10;3.47;;;12.40;90.40;;;;;;6314403;22;20023;-74
2021/09/01 02:08:35;;;;;;;7.70;4.10;;;12.50;90.40;;;;;;6314093;22;20042;-74
2021/09/01 02:11:02;;;;;;;8.07;4.38;;;12.60;90.10;;;;;;6315241;22;20023;-73
2021/09/01 02:13:30;;;;;;;6.72;3.47;;;12.60;90.10;;;;;;6314641;22;20019;-72
2021/09/01 02:15:58;;;;;;;7.75;3.88;;;12.50;90.00;;;;;;6315298;22;20027;-73
2021/09/01 02:18:27;;;;;;;8.77;3.92;;;12.40;90.10;;;;;;6314360;22;20045;-73
2021/09/01 02:20:54;;;;;;;7.50;3.83;;;12.50;90.30;;;;;;6317063;22;20027;-74
2021/09/01 02:23:22;;;;;;;8.05;3.58;;;12.60;90.00;;;;;;6288196;22;20027;-74
2021/09/01 02:25:50;;;;;;;9.55;4.40;;;12.50;89.70;;;;;;6316722;22;20030;-74
2021/09/01 02:28:17;;;;;;;10.63;4.40;;;12.40;89.60;;;;;;6316387;22;20019;-74
2021/09/01 02:30:44;;;;;;;8.30;4.00;;;12.40;90.00;;;;;;6316101;22;20084;-74
2021/09/01 02:33:12;;;;;;;7.95;3.72;;;12.40;90.30;;;;;;6315403;22;20027;-74
2021/09/01 02:35:42;;;;;;;10.27;4.32;;;12.40;90.30;;;;;;6316114;22;20015;-74
2021/09/01 02:38:09;;;;;;;7.57;4.00;;;12.20;90.80;;;;;;6315673;22;20015;-74
2021/09/01 02:40:37;;;;;;;7.10;3.72;;;12.20;91.10;;;;;;6315644;22;20393;-74
2021/09/01 02:43:06;;;;;;;7.85;3.53;;;12.20;91.00;;;;;;6316220;22;20047;-73
2021/09/01 02:45:33;;;;;;;7.55;3.67;;;12.40;90.60;;;;;;6315563;22;20311;-74
2021/09/01 02:48:00;;;;;;;9.98;4.75;;;12.50;90.20;;;;;;6315981;22;20363;-74
2021/09/01 02:50:29;;;;;;;7.53;4.28;;;12.50;90.00;;;;;;6313016;22;20039;-74
2021/09/01 02:52:58;;;;;;;6.78;3.70;;;12.40;90.20;;;;;;6315716;22;20023;-74
2021/09/01 02:55:26;;;;;;;7.82;4.13;;;12.50;90.10;;;;;;6314308;22;20026;-74
2021/09/01 02:57:53;;;;;;;10.20;3.42;;;12.40;90.10;;;;;;6316686;22;20015;-74
2021/09/01 03:00:21;;;;;;;6.82;3.83;;;12.50;89.70;;;;;;6310439;22;20026;-74
2021/09/01 03:02:48;;;;;;;8.82;4.10;;;12.50;89.80;;;;;;6316226;22;20030;-73
2021/09/01 03:05:15;;;;;;;5.88;3.13;;;12.40;89.60;;;;;;6315733;22;20035;-73
2021/09/01 03:07:43;;;;;;;9.65;4.00;;;12.40;89.50;;;;;;6316153;22;20019;-73
2021/09/01 03:10:15;;;;;;;6.97;2.92;;;12.30;89.70;;;;;;6288977;22;20082;-75
2021/09/01 03:12:42;;;;;;;5.50;2.60;;;12.30;89.60;;;;;;6314270;22;20023;-74
2021/09/01 03:15:11;;;;;;;7.18;3.03;;;12.20;89.50;;;;;;6315430;22;20318;-73
2021/09/01 03:17:41;;;;;;;9.35;3.17;;;12.30;89.40;;;;;;6288278;22;20210;-73
2021/09/01 03:20:10;;;;;;;6.22;3.08;;;12.20;89.30;;;;;;6315010;22;20015;-74
2021/09/01 03:22:37;;;;;;;6.00;3.28;;;12.30;89.30;;;;;;6314128;22;20019;-73
2021/09/01 03:25:05;;;;;;;6.70;3.33;;;12.30;89.50;;;;;;6314086;22;20023;-74
2021/09/01 03:27:34;;;;;;;7.25;3.35;;;12.40;89.30;;;;;;6313835;22;20342;-74
2021/09/01 03:30:02;;;;;;;6.20;3.50;;;12.40;89.10;;;;;;6312936;22;20015;-74
2021/09/01 03:32:36;;;;;;;7.07;2.72;;;12.30;89.10;;;;;;6287607;22;20023;-74
2021/09/01 03:35:04;;;;;;;6.72;3.13;;;12.30;89.10;;;;;;6312740;22;20069;-73
2021/09/01 03:37:32;;;;;;;9.55;3.17;;;12.40;89.00;;;;;;6313353;22;20031;-73
2021/09/01 03:40:00;;;;;;;7.95;3.63;;;12.40;88.90;;;;;;6287025;22;20045;-71
2021/09/01 03:42:31;;;;;;;7.80;3.38;;;12.30;88.90;;;;;;6312840;22;20035;-73
2021/09/01 03:45:00;;;;;;;7.25;3.47;;;12.30;89.10;;;;;;6313811;22;20234;-73
2021/09/01 03:47:27;;;;;;;8.13;3.47;;;12.30;88.90;;;;;;6286688;22;20033;-72
2021/09/01 03:49:54;;;;;;;7.53;3.58;;;12.20;89.00;;;;;;6313439;22;20354;-73
2021/09/01 03:52:22;;;;;;;8.85;3.20;;;12.10;89.30;;;;;;6313355;22;20395;-74
2021/09/01 03:54:52;;;;;;;9.90;4.40;;;12.10;89.60;;;;;;6313592;22;20015;-74
2021/09/01 03:57:23;;;;;;;5.75;2.92;;;12.10;89.80;;;;;;6313005;22;20019;-74
2021/09/01 03:59:50;;;;;;;;;;;12.10;89.90;;;;;;6316358;22;20038;-73
2021/09/01 04:02:19;;;;;;;10.90;3.20;;;12.20;89.80;;;;;;6314205;22;19931;-72
2021/09/01 04:04:47;;;;;;;6.50;3.17;;;12.20;89.50;;;;;;6316862;22;20019;-73
2021/09/01 04:07:14;;;;;;;7.45;3.30;;;12.30;89.30;;;;;;6315382;22;20026;-73
2021/09/01 04:09:41;;;;;;;6.43;3.00;;;12.20;89.10;;;;;;6315101;22;20073;-74
2021/09/01 04:12:09;;;;;;;6.03;3.35;;;12.20;88.90;;;;;;6315726;22;20307;-74
2021/09/01 04:14:36;;;;;;;6.57;3.20;;;12.20;89.60;;;;;;6315348;22;20288;-74
2021/09/01 04:17:10;;;;;;;8.18;3.85;;;12.20;89.80;;;;;;6316024;22;20334;-74
2021/09/01 04:19:39;;;;;;;6.80;3.05;;;12.20;89.60;;;;;;6315344;22;20372;-73
2021/09/01 04:22:06;;;;;;;8.38;3.33;;;12.20;89.40;;;;;;6315486;22;20037;-74
2021/09/01 04:24:34;;;;;;;7.45;3.65;;;12.10;89.80;;;;;;6314716;22;20019;-74
2021/09/01 04:27:01;;;;;;;6.85;3.45;;;12.00;89.90;;;;;;6316102;22;20030;-73
2021/09/01 04:29:30;;;;;;;6.63;3.53;;;12.00;90.10;;;;;;6313428;22;20249;-73
2021/09/01 04:31:57;;;;;;;6.43;3.50;;;11.90;90.30;;;;;;6316733;22;20015;-73
2021/09/01 04:34:24;;;;;;;9.75;3.28;;;12.00;90.40;;;;;;6287057;22;20047;-74
2021/09/01 04:36:55;;;;;;;9.32;3.75;;;11.90;90.40;;;;;;6314353;22;20325;-73
2021/09/01 04:39:23;;;;;;;9.90;4.03;;;12.00;90.70;;;;;;6314781;22;20034;-74
2021/09/01 04:41:53;;;;;;;6.30;3.35;;;12.00;90.80;;;;;;6287534;22;20039;-74
2021/09/01 04:44:21;;;;;;;5.57;3.00;;;12.00;90.60;;;;;;6314441;22;20203;-75
2021/09/01 04:46:48;;;;;;;6.97;2.67;;;12.00;90.80;;;;;;6315972;22;20015;-74
2021/09/01 04:49:17;;;;;;;9.10;4.30;;;11.90;90.50;;;;;;6315394;22;20019;-74
2021/09/01 04:51:45;;;;;;;6.97;3.58;;;11.90;90.90;;;;;;6315281;22;20064;-74
2021/09/01 04:54:14;;;;;;;8.27;3.15;;;12.00;90.60;;;;;;6316042;22;20027;-73
2021/09/01 04:56:41;;;;;;;7.60;3.78;;;12.00;90.30;;;;;;6311934;22;20023;-73
2021/09/01 04:59:10;;;;;;;6.55;2.92;;;12.00;90.40;;;;;;6314955;22;20057;-74
2021/09/01 05:01:45;;;;;;;6.55;2.78;;;12.00;90.10;;;;;;6308342;22;20035;-75
2021/09/01 05:04:15;;;;;;;8.30;3.03;;;12.00;90.10;;;;;;6313626;22;20023;-74
2021/09/01 05:06:42;;;;;;;6.57;3.00;;;12.00;90.00;;;;;;6312566;22;20299;-73
2021/09/01 05:09:18;;;;;;;6.40;2.85;;;12.10;89.90;;;;;;6314190;22;20021;-73
2021/09/01 05:11:48;;;;;;;5.63;2.88;;;12.00;90.00;;;;;;6313660;22;20027;-73
2021/09/01 05:14:18;;;;;;;4.95;2.28;;;12.00;89.80;;;;;;6313653;22;20023;-74
2021/09/01 05:16:48;;;;;;;5.63;2.30;;;12.00;89.30;;;;;;6313189;22;20360;-73
2021/09/01 05:19:16;;;;;;;4.85;2.38;;;12.00;89.00;;;;;;6313117;22;20019;-73
2021/09/01 05:21:51;;;;;;;5.47;2.17;;;11.90;89.30;;;;;;6312376;22;20042;-74
2021/09/01 05:24:30;;;;;;;5.00;2.30;;;11.90;89.10;;;;;;6314492;22;20026;-73
2021/09/01 05:27:08;;;;;;;6.38;2.90;;;12.00;88.90;;;;;;6313018;22;20031;-74
2021/09/01 05:29:40;;;;;;;5.75;2.70;;;12.00;88.40;;;;;;6314025;22;20322;-73
2021/09/01 05:32:12;;;;;;;6.07;2.13;;;11.90;88.60;;;;;;6313370;22;20299;-72
2021/09/01 05:34:42;;;;;;;5.72;2.58;;;12.10;88.80;;;;;;6286624;22;20015;-73
2021/09/01 05:37:12;;;;;;;5.70;2.70;;;12.10;88.40;;;;;;6315009;22;20023;-73
2021/09/01 05:39:42;;;;;;;;;;;12.20;88.10;;;;;;6313347;22;20015;-74
2021/09/01 05:42:11;;;;;;;4.93;2.50;;;12.30;88.10;;;;;;6315253;22;19911;-74
2021/09/01 05:44:41;;;;;;;6.72;2.33;;;12.30;87.80;;;;;;6314583;22;20035;-73
2021/09/01 05:47:13;;;;;;;6.80;2.67;;;12.40;88.20;;;;;;6315609;22;20034;-72
2021/09/01 05:49:41;;;;;;;4.72;2.38;;;12.50;87.20;;;;;;6287388;22;20015;-72
2021/09/01 05:52:10;;;;;;;4.93;2.15;;;12.30;87.60;;;;;;6316772;22;20217;-73
2021/09/01 05:54:40;;;;;;;4.30;2.30;;;12.30;87.90;;;;;;6316924;22;20114;-73
2021/09/01 05:57:14;;;;;;;6.97;1.92;;;12.40;87.60;;;;;;6289749;22;20022;-73
2021/09/01 05:59:48;;;;;;;3.75;2.00;;;12.50;87.10;;;;;;6316918;22;20034;-73
2021/09/01 06:02:21;;;;;;;4.90;2.25;;;12.50;87.30;;;;;;6312200;22;20019;-73
2021/09/01 06:04:49;;;;;;;6.78;2.03;;;12.60;86.80;;;;;;6316919;22;20019;-73
2021/09/01 06:07:19;;;;;;;4.85;2.42;;;12.80;86.50;;;;;;6317332;22;20194;-73
2021/09/01 06:09:47;;;;;;;5.50;2.13;;;12.90;86.40;;;;;;6316835;22;20019;-73
2021/09/01 06:12:20;;;;;;;6.07;2.20;;;12.90;85.90;;;;;;6317594;22;20069;-73
2021/09/01 06:14:48;;;;;;;5.93;2.60;;;13.00;85.60;;;;;;6317241;22;20027;-72
2021/09/01 06:17:16;;;;;;;5.05;2.03;;;13.10;85.30;;;;;;6316948;22;20025;-75
2021/09/01 06:19:43;;;;;;;4.88;2.40;;;13.20;85.20;;;;;;6317284;22;20061;-73
2021/09/01 06:22:11;;;;;;;6.03;2.95;;;13.50;85.20;;;;;;6317765;22;20128;-73
2021/09/01 06:24:41;;;;;;;6.80;2.90;;;13.70;84.70;;;;;;6316778;22;20031;-73
2021/09/01 06:27:11;;;;;;;7.22;2.78;;;13.70;84.50;;;;;;6316782;22;20023;-73
2021/09/01 06:29:39;;;;;;;9.68;3.83;;;13.80;84.50;;;;;;6316246;22;20027;-74
2021/09/01 06:32:07;;;;;;;9.80;3.80;;;13.80;84.50;;;;;;6319322;22;20019;-73
2021/09/01 06:34:35;;;;;;;8.55;3.58;;;14.00;84.10;;;;;;6289737;22;20191;-75
2021/09/01 06:37:02;;;;;;;6.38;3.17;;;14.10;84.10;;;;;;6317660;22;20053;-74
2021/09/01 06:39:30;;;;;;;6.30;3.50;;;14.20;84.40;;;;;;6315329;22;20043;-74
2021/09/01 06:41:57;;;;;;;8.98;3.53;;;14.50;83.70;;;;;;6314602;22;20023;-74
2021/09/01 06:44:25;;;;;;;8.60;3.55;;;14.60;82.90;;;;;;6316089;22;20078;-72
2021/09/01 06:46:54;;;;;;;13.85;3.80;;;14.80;82.60;;;;;;6289582;22;20285;-73
2021/09/01 06:49:21;;;;;;;8.52;3.97;;;14.90;81.80;;;;;;6315489;22;20046;-74
2021/09/01 06:51:48;;;;;;;5.93;3.35;;;15.00;82.10;;;;;;6315298;22;20222;-74
2021/09/01 06:54:16;;;;;;;8.90;4.22;;;15.10;81.90;;;;;;6288033;22;20027;-75
2021/09/01 06:56:46;;;;;;;9.65;4.28;;;15.30;81.60;;;;;;6315524;22;20057;-74
2021/09/01 06:59:14;;;;;;;8.10;3.70;;;15.40;80.90;;;;;;6315435;22;20494;-74
2021/09/01 07:01:42;;;;;;;6.72;3.28;;;15.50;81.20;;;;;;6309445;22;20249;-75
2021/09/01 07:04:10;;;;;;;6.03;3.33;;;15.60;80.50;;;;;;6315413;22;20061;-74
2021/09/01 07:06:38;;;;;;;6.70;3.78;;;15.60;80.40;;;;;;6315243;22;20033;-74
2021/09/01 07:09:05;;;;;;;7.68;4.10;;;15.90;79.40;;;;;;6316113;22;20371;-74
2021/09/01 07:11:34;;;;;;;6.28;3.08;;;15.90;80.20;;;;;;6316083;22;20195;-74
2021/09/01 07:14:01;;;;;;;6.05;2.95;;;16.10;78.70;;;;;;6317493;22;20046;-74
2021/09/01 07:16:37;;;;;;;6.55;3.33;;;15.90;79.70;;;;;;6315409;22;20210;-74
2021/09/01 07:19:05;;;;;;;7.18;3.08;;;15.70;80.50;;;;;;6316229;22;20082;-74
2021/09/01 07:21:34;;;;;;;7.13;3.60;;;16.00;79.50;;;;;;6316884;22;20019;-74
2021/09/01 07:24:02;;;;;;;6.82;2.95;;;16.30;78.80;;;;;;6318071;22;20041;-74
2021/09/01 07:26:31;;;;;;;7.30;3.50;;;16.30;79.40;;;;;;6317401;22;20272;-73
2021/09/01 07:28:58;;;;;;;5.93;3.35;;;16.20;78.60;;;;;;6318387;22;20027;-73
2021/09/01 07:31:27;;;;;;;7.60;3.47;;;15.90;79.80;;;;;;6317240;22;20027;-73
2021/09/01 07:33:59;;;;;;;6.50;3.47;;;16.10;80.00;;;;;;6317290;22;20079;-75
2021/09/01 07:36:27;;;;;;;7.55;3.45;;;16.40;78.90;;;;;;6316092;22;20027;-73
2021/09/01 07:38:56;;;;;;;8.23;3.95;;;16.60;78.60;;;;;;6315814;22;20023;-73
2021/09/01 07:41:23;;;;;;;8.57;4.10;;;16.50;77.90;;;;;;6312509;22;20030;-74
2021/09/01 07:43:51;;;;;;;7.70;4.03;;;16.70;78.30;;;;;;6315816;22;20044;-73
2021/09/01 07:46:18;;;;;;;9.77;3.75;;;17.00;77.90;;;;;;6316780;22;20034;-73
2021/09/01 07:48:46;;;;;;;8.73;4.07;;;17.30;77.40;;;;;;6316924;22;20245;-74
2021/09/01 07:51:16;;;;;;;9.68;3.90;;;17.40;76.80;;;;;;6316010;22;20339;-73
2021/09/01 07:53:45;;;;;;;9.65;4.00;;;17.40;76.80;;;;;;6315965;22;20026;-73
2021/09/01 07:56:13;;;;;;;8.60;3.90;;;17.30;76.60;;;;;;6316975;22;20022;-73
2021/09/01 07:58:41;;;;;;;14.63;4.45;;;17.60;77.20;;;;;;6316014;22;20274;-74
2021/09/01 08:01:08;;;;;;;8.90;5.15;;;18.10;76.00;;;;;;6312103;22;20074;-74
2021/09/01 08:03:36;;;;;;;9.57;4.25;;;18.10;74.80;;;;;;6316168;22;20171;-74
2021/09/01 08:06:05;;;;;;;9.73;4.35;;;18.20;75.40;;;;;;6317247;22;20015;-74
2021/09/01 08:08:32;;;;;;;9.77;4.40;;;18.30;74.90;;;;;;6315511;22;20035;-73
2021/09/01 08:10:59;;;;;;;10.52;4.68;;;18.50;74.60;;;;;;6316680;22;20022;-73
2021/09/01 08:13:28;;;;;;;9.32;5.32;;;18.60;74.40;;;;;;6316272;22;20031;-74
2021/09/01 08:15:56;;;;;;;9.60;5.30;;;18.50;74.30;;;;;;6316626;22;20050;-74
2021/09/01 08:18:23;;;;;;;11.48;5.10;;;18.70;74.10;;;;;;6288965;22;20038;-73
2021/09/01 08:20:51;;;;;;;8.75;4.75;;;18.90;73.80;;;;;;6316738;22;20015;-74
2021/09/01 08:23:18;;;;;;;14.20;5.95;;;18.80;73.70;;;;;;6314556;22;20326;-73
2021/09/01 08:25:46;;;;;;;13.20;5.95;;;19.10;73.10;;;;;;6315203;22;20364;-73
2021/09/01 08:28:13;;;;;;;10.18;5.13;;;19.30;71.80;;;;;;6315464;22;20070;-74
2021/09/01 08:30:42;;;;;;;9.32;5.07;;;19.50;72.40;;;;;;6315244;22;20015;-74
2021/09/01 08:33:09;;;;;;;8.48;4.65;;;19.60;72.00;;;;;;6314983;22;20030;-74
2021/09/01 08:35:40;;;;;;;9.98;4.75;;;19.60;71.30;;;;;;6313663;22;20019;-74
2021/09/01 08:38:07;;;;;;;11.32;5.55;;;19.70;71.00;;;;;;6315490;22;20071;-74
2021/09/01 08:40:35;;;;;;;10.95;4.82;;;19.60;71.70;;;;;;6315478;22;20121;-73
2021/09/01 08:43:02;;;;;;;12.18;5.40;;;19.70;71.20;;;;;;6316324;22;20097;-74
2021/09/01 08:45:30;;;;;;;9.30;5.20;;;19.70;70.10;;;;;;6287466;22;20322;-74
2021/09/01 08:47:59;;;;;;;11.73;5.25;;;19.60;71.20;;;;;;6316806;22;20041;-74
2021/09/01 08:50:29;;;;;;;11.05;5.10;;;19.90;69.60;;;;;;6316037;22;20027;-74
2021/09/01 08:52:58;;;;;;;7.53;4.05;;;19.90;69.80;;;;;;6317914;22;20029;-73
2021/09/01 08:55:25;;;;;;;9.82;4.78;;;20.00;69.20;;;;;;6316124;22;20031;-73
2021/09/01 08:57:52;;;;;;;11.30;5.15;;;20.20;67.20;;;;;;6315445;22;20015;-73
2021/09/01 09:00:20;;;;;;;8.63;5.03;;;19.90;68.80;;;;;;6310654;22;20019;-73
2021/09/01 09:02:55;;;;;;;10.55;5.10;;;20.10;68.40;;;;;;6316290;22;20100;-74
2021/09/01 09:05:34;;;;;;;9.27;4.03;;;20.10;67.60;;;;;;6315437;22;20070;-74
2021/09/01 09:08:03;;;;;;;12.77;5.72;;;20.30;67.40;;;;;;6316269;22;20015;-73
2021/09/01 09:10:33;;;;;;;12.60;5.75;;;20.60;67.20;;;;;;6315833;22;20027;-73
2021/09/01 09:13:01;;;;;;;;;;;20.80;66.30;;;;;;6317192;22;20318;-73
2021/09/01 09:15:30;;;;;;;12.18;5.35;;;20.90;64.80;;;;;;6288953;22;19918;-73
2021/09/01 09:18:00;;;;;;;8.68;5.25;;;21.00;64.90;;;;;;6315782;22;20019;-73
2021/09/01 09:20:33;;;;;;;10.40;4.97;;;21.20;64.30;;;;;;6316380;22;20341;-74
2021/09/01 09:23:05;;;;;;;8.55;4.57;;;20.90;63.60;;;;;;6315612;22;20065;-73
2021/09/01 09:25:39;;;;;;;9.23;4.53;;;21.10;64.50;;;;;;6315475;22;20244;-74
2021/09/01 09:28:08;;;;;;;10.15;4.95;;;21.20;64.00;;;;;;6317668;22;20029;-74
2021/09/01 09:30:42;;;;;;;7.55;3.63;;;21.10;64.50;;;;;;6318219;22;20075;-75
2021/09/01 09:33:12;;;;;;;9.38;4.03;;;21.00;64.10;;;;;;6317108;22;20023;-75
2021/09/01 09:36:03;;;;;;;10.13;4.55;;;20.90;64.30;;;;;;6315454;22;20033;-73
2021/09/01 09:38:37;;;;;;;11.25;4.03;;;20.80;65.30;;;;;;6309006;22;20184;-75
2021/09/01 09:41:07;;;;;;;9.27;4.43;;;21.00;64.20;;;;;;6288980;22;20361;-74
2021/09/01 09:43:35;;;;;;;9.35;4.15;;;21.10;63.40;;;;;;6317083;22;20218;-74
2021/09/01 09:46:15;;;;;;;7.43;3.78;;;21.20;63.40;;;;;;6289350;22;20023;-73
2021/09/01 09:48:46;;;;;;;9.50;3.88;;;21.70;62.10;;;;;;6289664;22;20028;-74
2021/09/01 09:51:17;;;;;;;9.65;4.38;;;22.00;61.40;;;;;;6316953;22;20075;-72
2021/09/01 09:53:46;;;;;;;9.85;3.53;;;22.10;61.20;;;;;;6317232;22;20027;-74
2021/09/01 09:56:16;;;;;;;10.95;4.40;;;21.80;61.20;;;;;;6317573;22;20038;-74
2021/09/01 09:58:48;;;;;;;9.23;4.20;;;22.10;60.60;;;;;;6317169;22;20019;-75
2021/09/01 10:01:17;;;;;;;8.00;4.25;;;22.10;60.90;;;;;;6311777;22;20241;-73
2021/09/01 10:03:45;;;;;;;12.70;4.82;;;22.10;59.70;;;;;;6316125;22;20031;-73
2021/09/01 10:06:16;;;;;;;7.10;4.22;;;22.20;59.80;;;;;;6316020;22;20023;-74
2021/09/01 10:08:48;;;;;;;9.55;3.60;;;22.80;58.50;;;;;;6315429;22;20023;-74
2021/09/01 10:11:17;;;;;;;8.80;4.38;;;23.40;56.90;;;;;;6315857;22;20041;-75
2021/09/01 10:13:46;;;;;;;10.20;4.50;;;23.40;55.20;;;;;;6288714;22;20104;-73
2021/09/01 10:16:28;;;;;;;8.27;4.13;;;23.40;56.20;;;;;;6288604;22;20034;-74
2021/09/01 10:19:03;;;;;;;8.50;3.60;;;23.60;55.20;;;;;;6315773;22;20027;-74
2021/09/01 10:21:34;;;;;;;6.85;3.80;;;23.50;56.20;;;;;;6273215;22;20025;-74
2021/09/01 10:24:22;;;;;;;9.35;3.75;;;23.10;56.30;;;;;;6317006;22;20062;-74
2021/09/01 10:27:09;;;;;;;6.55;3.55;;;22.80;57.20;;;;;;6316035;22;20061;-74
2021/09/01 10:29:44;;;;;;;10.90;3.40;;;24.90;54.00;;;;;;6288657;22;20019;-74
2021/09/01 10:32:28;;;;;;;9.13;3.67;;;26.80;48.50;;;;;;6313277;22;20222;-75
2021/09/01 10:35:30;;;;;;;8.93;3.47;;;27.90;44.30;;;;;;6314542;22;20027;-73
2021/09/01 10:38:04;;;;;;;11.35;3.72;;;28.40;43.50;;;;;;6280638;22;20338;-74
2021/09/01 10:41:04;;;;;;;8.95;3.45;;;29.70;40.60;;;;;;6289877;22;20034;-75
2021/09/01 10:43:38;;;;;;;6.88;3.17;;;29.50;39.60;;;;;;6315877;22;20038;-74
2021/09/01 10:46:08;;;;;;;10.25;3.45;;;30.30;39.20;;;;;;6316999;22;20015;-73
2021/09/01 10:48:57;;;;;;;10.27;3.63;;;29.80;39.30;;;;;;6316753;22;20310;-75
2021/09/01 10:51:29;;;;;;;6.97;3.00;;;30.00;38.40;;;;;;6316255;22;20065;-73
2021/09/01 10:54:27;;;;;;;9.27;3.95;;;28.50;41.40;;;;;;6316969;22;20393;-73
2021/09/01 10:56:57;;;;;;;5.80;2.70;;;27.00;43.60;;;;;;6316524;22;20027;-73
2021/09/01 10:59:27;;;;;;;8.98;3.92;;;26.10;46.50;;;;;;6316292;22;20112;-74
2021/09/01 11:02:08;;;;;;;7.55;4.03;;;27.60;43.40;;;;;;6311467;22;20106;-73
2021/09/01 11:04:46;;;;;;;5.55;2.92;;;29.60;39.30;;;;;;6316689;22;20019;-73
2021/09/01 11:07:21;;;;;;;6.43;3.42;;;31.30;37.50;;;;;;6317106;22;20031;-73
2021/09/01 11:09:52;;;;;;;6.88;2.70;;;32.00;35.20;;;;;;6316179;22;20022;-73
2021/09/01 11:12:23;;;;;;;6.50;3.15;;;32.80;33.50;;;;;;6289691;22;20353;-73
2021/09/01 11:14:52;;;;;;;7.20;3.67;;;31.70;35.60;;;;;;6316922;22;20049;-75
2021/09/01 11:17:22;;;;;;;4.80;2.72;;;32.30;34.80;;;;;;6316461;22;20019;-74
2021/09/01 11:19:53;;;;;;;5.55;3.20;;;33.60;33.10;;;;;;6317076;22;20015;-74
2021/09/01 11:22:24;;;;;;;6.63;2.72;;;33.90;32.30;;;;;;6317239;22;20019;-73
2021/09/01 11:24:53;;;;;;;9.48;3.60;;;34.40;30.90;;;;;;6321376;22;20376;-74
2021/09/01 11:27:27;;;;;;;6.78;3.10;;;34.10;32.00;;;;;;6317309;22;20019;-74
2021/09/01 11:30:01;;;;;;;6.30;2.83;;;35.30;29.50;;;;;;6317660;22;20023;-74
2021/09/01 11:32:35;;;;;;;5.10;2.53;;;35.80;28.30;;;;;;6321854;22;20030;-73
2021/09/01 11:35:05;;;;;;;6.68;3.60;;;35.10;29.80;;;;;;6318894;22;20075;-73
2021/09/01 11:37:34;;;;;;;8.15;3.03;;;35.10;28.60;;;;;;6317010;22;20030;-73
2021/09/01 11:40:01;;;;;;;5.83;2.90;;;34.50;30.10;;;;;;6315793;22;20237;-73
2021/09/01 11:42:35;;;;;;;4.35;2.40;;;34.60;29.50;;;;;;6314406;22;20027;-73
2021/09/01 11:45:05;;;;;;;7.85;2.83;;;34.80;29.50;;;;;;6314971;22;20038;-75
2021/09/01 11:47:32;;;;;;;7.38;3.80;;;34.70;29.80;;;;;;6313711;22;20141;-73
2021/09/01 11:50:00;;;;;;;5.57;2.60;;;34.90;29.40;;;;;;6316792;22;20022;-74
2021/09/01 11:52:31;;;;;;;5.07;3.00;;;36.30;28.10;;;;;;6318135;22;20026;-74
2021/09/01 11:54:59;;;;;;;5.60;2.63;;;37.00;26.60;;;;;;6315030;22;20015;-74
2021/09/01 11:57:27;;;;;;;6.30;2.73;;;35.00;28.80;;;;;;6314563;22;20376;-73
2021/09/01 11:59:59;;;;;;;4.50;2.33;;;35.20;28.50;;;;;;6316985;22;20030;-74
2021/09/01 12:02:29;;;;;;;6.00;2.90;;;35.60;27.90;;;;;;6312664;22;20019;-74
2021/09/01 12:04:57;;;;;;;6.15;2.78;;;36.50;26.10;;;;;;6316750;22;20023;-73
2021/09/01 12:07:27;;;;;;;5.30;2.25;;;36.90;26.10;;;;;;6317291;22;20337;-74
2021/09/01 12:09:55;;;;;;;5.07;2.58;;;37.10;25.50;;;;;;6317177;22;20046;-72
2021/09/01 12:12:23;;;;;;;4.00;2.30;;;36.00;26.10;;;;;;6316098;22;20026;-72
2021/09/01 12:14:51;;;;;;;6.88;2.33;;;35.60;26.70;;;;;;6293567;22;20015;-74
2021/09/01 12:17:22;;;;;;;7.07;2.50;;;35.70;27.40;;;;;;6314932;22;20251;-72
2021/09/01 12:19:51;;;;;;;5.90;2.50;;;36.20;26.50;;;;;;6317499;22;20408;-73
2021/09/01 12:22:41;;;;;;;6.40;2.35;;;37.20;25.00;;;;;;6316231;22;20082;-73
2021/09/01 12:25:10;;;;;;;5.07;2.40;;;35.90;26.50;;;;;;6317230;22;20015;-73
2021/09/01 12:27:40;;;;;;;5.70;2.38;;;35.80;26.20;;;;;;6315905;22;20035;-74
2021/09/01 12:30:09;;;;;;;7.97;2.67;;;35.90;26.30;;;;;;6316081;22;20015;-73
2021/09/01 12:32:38;;;;;;;4.78;2.13;;;36.80;25.90;;;;;;6289273;22;20060;-73
2021/09/01 12:35:09;;;;;;;4.97;2.30;;;37.00;25.90;;;;;;6314857;22;20340;-73
2021/09/01 12:37:38;;;;;;;5.28;2.47;;;37.00;25.10;;;;;;6315175;22;20027;-74
2021/09/01 12:40:08;;;;;;;;;;;36.70;24.40;;;;;;6288633;22;20015;-73
2021/09/01 12:42:39;;;;;;;5.18;2.20;;;35.10;27.20;;;;;;6313725;22;19918;-74
2021/09/01 12:45:10;;;;;;;5.80;2.47;;;35.10;27.00;;;;;;6288946;22;20215;-72
2021/09/01 12:47:53;;;;;;;5.43;2.10;;;35.30;26.90;;;;;;6316481;22;20030;-73
2021/09/01 12:50:21;;;;;;;4.63;2.30;;;35.70;26.50;;;;;;6315533;22;20019;-74
2021/09/01 12:52:51;;;;;;;6.45;2.58;;;36.90;25.00;;;;;;6315963;22;20023;-72
2021/09/01 12:55:20;;;;;;;5.40;2.33;;;36.00;25.40;;;;;;6314680;22;20019;-73
2021/09/01 12:57:47;;;;;;;5.60;2.13;;;36.00;25.30;;;;;;6288469;22;20218;-74
2021/09/01 13:00:17;;;;;;;7.35;2.30;;;36.70;25.00;;;;;;6313983;22;20035;-74
2021/09/01 13:02:47;;;;;;;4.60;2.35;;;35.40;26.40;;;;;;6317995;22;20318;-73